createdAt,value
2022-09-10T00:00:28.556Z,95445.44
2022-09-10T00:02:56.022Z,95430.50
2022-09-10T00:05:23.492Z,95432.31
2022-09-10T00:07:50.918Z,95427.84
2022-09-10T00:10:19.872Z,95428.09
2022-09-10T00:12:48.099Z,95440.34
2022-09-10T00:15:15.602Z,95437.47
2022-09-10T00:17:43.014Z,95432.75
2022-09-10T00:20:11.198Z,95438.75
2022-09-10T00:22:38.588Z,95441.16
2022-09-10T00:25:08.469Z,95448.22
2022-09-10T00:27:37.782Z,95446.63
2022-09-10T00:30:06.409Z,95443.00
2022-09-10T00:32:34.728Z,95431.03
2022-09-10T00:35:02.131Z,95431.50
2022-09-10T00:37:30.796Z,95446.41
2022-09-10T00:39:59.140Z,95442.75
2022-09-10T00:42:26.568Z,95441.16
2022-09-10T00:45:05.467Z,95435.44
2022-09-10T00:47:36.470Z,95428.66
2022-09-10T00:50:16.142Z,95437.78
2022-09-10T00:52:44.609Z,95433.84
2022-09-10T00:55:13.366Z,95441.16
2022-09-10T00:57:42.070Z,95438.75
2022-09-10T01:00:14.182Z,95436.41
2022-09-10T01:02:41.820Z,95446.84
2022-09-10T01:05:11.689Z,95439.31
2022-09-10T01:07:39.320Z,95444.50
2022-09-10T01:10:11.501Z,95447.16
2022-09-10T01:13:21.595Z,95450.56
2022-09-10T01:15:58.681Z,95445.59
2022-09-10T01:18:38.969Z,95446.38
2022-09-10T01:21:16.640Z,95447.69
2022-09-10T01:24:14.493Z,95439.13
2022-09-10T01:27:15.479Z,95444.88
2022-09-10T01:29:49.876Z,95444.03
2022-09-10T01:32:24.954Z,95435.91
2022-09-10T01:35:00.698Z,95436.69
2022-09-10T01:37:31.277Z,95444.53
2022-09-10T01:40:01.046Z,95423.97
2022-09-10T01:42:29.309Z,95441.44
2022-09-10T01:44:58.987Z,95444.31
2022-09-10T01:47:50.995Z,95436.69
2022-09-10T01:50:25.583Z,95439.63
2022-09-10T01:53:07.197Z,95438.03
2022-09-10T01:55:44.203Z,95432.28
2022-09-10T01:58:22.161Z,95433.59
2022-09-10T02:00:59.975Z,95427.84
2022-09-10T02:03:29.430Z,95413.50
2022-09-10T02:05:58.799Z,95424.19
2022-09-10T02:08:30.991Z,95419.78
2022-09-10T02:11:00.675Z,95416.91
2022-09-10T02:13:30.632Z,95422.66
2022-09-10T02:16:00.309Z,95410.63
2022-09-10T02:18:28.229Z,95413.75
2022-09-10T02:20:58.353Z,95413.25
2022-09-10T02:23:31.385Z,95410.91
2022-09-10T02:25:59.384Z,95419.50
2022-09-10T02:28:27.299Z,95411.66
2022-09-10T02:30:54.976Z,95418.22
2022-09-10T02:33:23.761Z,95416.13
2022-09-10T02:35:51.949Z,95412.16
2022-09-10T02:38:19.723Z,95416.84
2022-09-10T02:40:48.912Z,95409.00
2022-09-10T02:43:17.164Z,95407.44
2022-09-10T02:45:45.272Z,95422.59
2022-09-10T02:48:12.939Z,95420.75
2022-09-10T02:50:41.811Z,95425.94
2022-09-10T02:53:09.222Z,95435.63
2022-09-10T02:55:36.628Z,95425.66
2022-09-10T02:58:04.095Z,95433.25
2022-09-10T03:00:31.807Z,95422.03
2022-09-10T03:03:02.910Z,95418.97
2022-09-10T03:05:30.675Z,95423.69
2022-09-10T03:08:00.290Z,95409.34
2022-09-10T03:10:28.224Z,95424.00
2022-09-10T03:12:55.638Z,95425.63
2022-09-10T03:15:23.086Z,95412.31
2022-09-10T03:17:50.797Z,95421.69
2022-09-10T03:20:18.832Z,95415.22
2022-09-10T03:22:47.529Z,95407.06
2022-09-10T03:25:17.139Z,95422.75
2022-09-10T03:27:44.558Z,95417.25
2022-09-10T03:30:12.741Z,95414.41
2022-09-10T03:32:40.206Z,95424.84
2022-09-10T03:35:08.403Z,95420.97
2022-09-10T03:37:36.262Z,95432.44
2022-09-10T03:40:05.481Z,95411.56
2022-09-10T03:42:34.428Z,95418.75
2022-09-10T03:45:01.860Z,95422.13
2022-09-10T03:47:29.294Z,95423.72
2022-09-10T03:49:56.702Z,95427.59
2022-09-10T03:52:24.184Z,95431.22
2022-09-10T03:54:51.631Z,95421.31
2022-09-10T03:57:19.254Z,95422.38
2022-09-10T03:59:48.006Z,95424.22
2022-09-10T04:02:15.490Z,95422.69
2022-09-10T04:04:42.939Z,95426.38
2022-09-10T04:07:11.067Z,95419.88
2022-09-10T04:09:38.544Z,95428.03
2022-09-10T04:12:06.402Z,95438.75
2022-09-10T04:14:34.311Z,95436.41
2022-09-10T04:17:03.244Z,95440.59
2022-09-10T04:19:30.842Z,95435.09
2022-09-10T04:21:58.262Z,95443.41
2022-09-10T04:24:25.743Z,95424.56
2022-09-10T04:26:53.166Z,95428.44
2022-09-10T04:29:20.802Z,95445.72
2022-09-10T04:31:48.225Z,95432.09
2022-09-10T04:34:17.448Z,95435.72
2022-09-10T04:36:44.956Z,95434.97
2022-09-10T04:39:14.368Z,95431.78
2022-09-10T04:41:41.780Z,95437.53
2022-09-10T04:44:09.291Z,95439.34
2022-09-10T04:46:36.803Z,95444.53
2022-09-10T04:49:04.339Z,95438.75
2022-09-10T04:51:33.294Z,95446.34
2022-09-10T04:54:01.651Z,95446.34
2022-09-10T04:56:29.250Z,95447.63
2022-09-10T04:58:56.918Z,95431.94
2022-09-10T05:01:24.945Z,95449.97
2022-09-10T05:03:52.422Z,95449.69
2022-09-10T05:06:20.196Z,95442.59
2022-09-10T05:08:48.955Z,95444.41
2022-09-10T05:11:19.511Z,95442.84
2022-09-10T05:13:47.230Z,95437.56
2022-09-10T05:16:15.067Z,95446.22
2022-09-10T05:18:42.498Z,95444.38
2022-09-10T05:21:10.222Z,95448.09
2022-09-10T05:23:39.384Z,95438.91
2022-09-10T05:26:08.368Z,95451.94
2022-09-10T05:28:35.758Z,95454.06
2022-09-10T05:31:03.287Z,95444.66
2022-09-10T05:33:30.892Z,95456.19
2022-09-10T05:35:58.278Z,95459.00
2022-09-10T05:38:26.445Z,95462.69
2022-09-10T05:40:53.898Z,95451.66
2022-09-10T05:43:22.654Z,95455.28
2022-09-10T05:45:51.759Z,95457.13
2022-09-10T05:48:19.183Z,95462.31
2022-09-10T05:50:46.675Z,95453.63
2022-09-10T05:53:14.583Z,95467.25
2022-09-10T05:55:43.780Z,95451.28
2022-09-10T05:58:13.444Z,95459.94
2022-09-10T06:00:43.878Z,95460.94
2022-09-10T06:03:11.768Z,95458.59
2022-09-10T06:05:39.271Z,95465.06
2022-09-10T06:08:08.748Z,95476.06
2022-09-10T06:10:36.797Z,95471.53
2022-09-10T06:13:04.232Z,95470.69
2022-09-10T06:15:34.721Z,95483.63
2022-09-10T06:18:03.825Z,95475.69
2022-09-10T06:20:31.271Z,95464.22
2022-09-10T06:22:58.881Z,95472.03
2022-09-10T06:25:26.307Z,95476.97
2022-09-10T06:27:53.723Z,95485.38
2022-09-10T06:30:21.591Z,95493.75
2022-09-10T06:32:49.039Z,95486.69
2022-09-10T06:35:18.000Z,95487.75
2022-09-10T06:37:45.410Z,95494.75
2022-09-10T06:40:13.183Z,95493.69
2022-09-10T06:42:41.026Z,95507.59
2022-09-10T06:45:09.318Z,95504.41
2022-09-10T06:50:26.444Z,95497.31
2022-09-10T06:52:54.066Z,95511.69
2022-09-10T06:55:21.491Z,95502.81
2022-09-10T06:57:48.916Z,95520.53
2022-09-10T07:00:17.385Z,95520.69
2022-09-10T07:02:44.807Z,95524.81
2022-09-10T07:05:12.245Z,95518.78
2022-09-10T07:07:41.015Z,95522.06
2022-09-10T07:10:09.342Z,95519.56
2022-09-10T07:12:36.782Z,95532.69
2022-09-10T07:15:04.527Z,95532.81
2022-09-10T07:17:35.273Z,95514.94
2022-09-10T07:20:03.240Z,95535.91
2022-09-10T07:22:31.006Z,95531.88
2022-09-10T07:25:00.091Z,95531.81
2022-09-10T07:27:27.544Z,95522.44
2022-09-10T07:29:54.974Z,95537.50
2022-09-10T07:32:22.462Z,95539.28
2022-09-10T07:34:49.946Z,95543.09
2022-09-10T07:37:17.395Z,95542.53
2022-09-10T07:39:45.874Z,95541.03
2022-09-10T07:42:14.696Z,95534.03
2022-09-10T07:44:42.143Z,95560.56
2022-09-10T07:47:09.616Z,95548.63
2022-09-10T07:49:37.045Z,95554.47
2022-09-10T07:52:04.870Z,95556.84
2022-09-10T07:54:32.322Z,95563.31
2022-09-10T07:56:59.740Z,95554.22
2022-09-10T07:59:28.507Z,95569.91
2022-09-10T08:01:55.969Z,95559.84
2022-09-10T08:04:24.320Z,95559.25
2022-09-10T08:06:52.020Z,95567.94
2022-09-10T08:09:20.192Z,95559.63
2022-09-10T08:11:47.587Z,95564.31
2022-09-10T08:14:15.075Z,95569.84
2022-09-10T08:16:44.635Z,95556.50
2022-09-10T08:19:13.670Z,95569.34
2022-09-10T08:21:41.125Z,95575.97
2022-09-10T08:24:08.557Z,95577.06
2022-09-10T08:26:35.966Z,95580.94
2022-09-10T08:29:03.988Z,95575.94
2022-09-10T08:31:31.393Z,95581.50
2022-09-10T08:34:00.126Z,95586.44
2022-09-10T08:36:27.651Z,95588.31
2022-09-10T08:39:00.710Z,95587.88
2022-09-10T08:41:42.129Z,95585.81
2022-09-10T08:44:16.081Z,95590.97
2022-09-10T08:46:48.280Z,95588.22
2022-09-10T08:49:26.816Z,95588.53
2022-09-10T08:51:57.528Z,95577.09
2022-09-10T08:54:28.845Z,95596.66
2022-09-10T08:57:00.625Z,95607.09
2022-09-10T08:59:34.302Z,95590.47
2022-09-10T09:02:07.184Z,95600.84
2022-09-10T09:04:44.839Z,95606.91
2022-09-10T09:07:14.685Z,95602.66
2022-09-10T09:09:42.965Z,95605.28
2022-09-10T09:12:19.519Z,95605.91
2022-09-10T09:14:56.645Z,95610.50
2022-09-10T09:17:37.567Z,95594.97
2022-09-10T09:20:15.733Z,95606.19
2022-09-10T09:22:51.801Z,95599.16
2022-09-10T09:25:24.478Z,95607.44
2022-09-10T09:27:56.378Z,95603.28
2022-09-10T09:30:26.972Z,95602.38
2022-09-10T09:32:58.324Z,95602.59
2022-09-10T09:35:32.197Z,95619.75
2022-09-10T09:38:13.673Z,95610.50
2022-09-10T09:40:46.827Z,95620.84
2022-09-10T09:43:23.843Z,95611.66
2022-09-10T09:45:53.297Z,95608.53
2022-09-10T09:48:24.304Z,95615.91
2022-09-10T09:50:56.582Z,95621.50
2022-09-10T09:53:26.091Z,95613.44
2022-09-10T09:55:55.945Z,95612.50
2022-09-10T09:58:37.329Z,95612.09
2022-09-10T10:01:14.362Z,95616.41
2022-09-10T10:03:50.134Z,95616.91
2022-09-10T10:06:21.710Z,95612.44
2022-09-10T10:08:57.013Z,95610.31
2022-09-10T10:11:41.505Z,95599.59
2022-09-10T10:14:21.249Z,95609.91
2022-09-10T10:16:49.398Z,95609.69
2022-09-10T10:19:29.714Z,95611.03
2022-09-10T10:21:59.972Z,95600.59
2022-09-10T10:24:32.530Z,95598.41
2022-09-10T10:27:00.296Z,95605.72
2022-09-10T10:29:28.529Z,95594.47
2022-09-10T10:31:57.362Z,95601.81
2022-09-10T10:34:47.369Z,95593.13
2022-09-10T10:37:23.546Z,95599.59
2022-09-10T10:40:09.301Z,95580.63
2022-09-10T10:42:41.683Z,95596.81
2022-09-10T10:45:28.355Z,95588.56
2022-09-10T10:48:04.011Z,95591.28
2022-09-10T10:50:38.116Z,95591.28
2022-09-10T10:53:19.370Z,95593.16
2022-09-10T10:55:53.308Z,95601.44
2022-09-10T10:58:40.002Z,95591.44
2022-09-10T11:01:14.738Z,95585.03
2022-09-10T11:03:48.731Z,95587.56
2022-09-10T11:06:20.929Z,95594.38
2022-09-10T11:08:55.046Z,95596.84
2022-09-10T11:11:29.043Z,95573.22
2022-09-10T11:14:02.259Z,95577.06
2022-09-10T11:16:40.308Z,95585.50
2022-09-10T11:19:17.029Z,95603.72
2022-09-10T11:21:52.161Z,95600.94
2022-09-10T11:24:24.246Z,95599.63
2022-09-10T11:26:56.948Z,95593.53
2022-09-10T11:29:34.813Z,95594.66
2022-09-10T11:32:07.975Z,95598.78
2022-09-10T11:34:43.351Z,95611.25
2022-09-10T11:37:17.732Z,95602.91
2022-09-10T11:39:50.059Z,95595.00
2022-09-10T11:42:23.158Z,95600.84
2022-09-10T11:44:59.096Z,95604.47
2022-09-10T11:47:33.094Z,95610.34
2022-09-10T11:50:04.323Z,95604.69
2022-09-10T11:52:33.578Z,95598.44
2022-09-10T11:55:03.711Z,95611.91
2022-09-10T11:57:40.790Z,95613.25
2022-09-10T12:00:15.853Z,95622.03
2022-09-10T12:03:20.153Z,95603.44
2022-09-10T12:05:57.124Z,95606.25
2022-09-10T12:08:38.251Z,95608.69
2022-09-10T12:11:16.147Z,95616.59
2022-09-10T12:13:45.512Z,95610.56
2022-09-10T12:16:21.890Z,95607.97
2022-09-10T12:18:52.193Z,95614.31
2022-09-10T12:21:29.295Z,95604.50
2022-09-10T12:23:58.119Z,95614.06
2022-09-10T12:26:27.156Z,95597.31
2022-09-10T12:29:01.480Z,95592.66
2022-09-10T12:31:28.970Z,95591.38
2022-09-10T12:34:17.017Z,95587.00
2022-09-10T12:37:24.449Z,95596.47
2022-09-10T12:40:25.541Z,95585.34
2022-09-10T12:42:58.718Z,95588.03
2022-09-10T12:46:01.602Z,95588.94
2022-09-10T12:48:29.706Z,95586.47
2022-09-10T12:51:00.421Z,95593.69
2022-09-10T12:54:07.435Z,95584.38
2022-09-10T12:56:50.775Z,95586.94
2022-09-10T12:59:55.095Z,95590.66
2022-09-10T13:02:30.215Z,95581.88
2022-09-10T13:05:01.033Z,95586.88
2022-09-10T13:07:35.655Z,95591.69
2022-09-10T13:10:08.085Z,95585.00
2022-09-10T13:12:37.504Z,95597.00
2022-09-10T13:15:07.861Z,95599.66
2022-09-10T13:17:41.100Z,95602.94
2022-09-10T13:20:29.113Z,95607.41
2022-09-10T13:22:58.792Z,95598.66
2022-09-10T13:25:34.771Z,95612.84
2022-09-10T13:28:02.680Z,95613.72
2022-09-10T13:30:31.982Z,95613.22
2022-09-10T13:33:01.940Z,95611.94
2022-09-10T13:35:59.114Z,95620.53
2022-09-10T13:38:47.660Z,95627.91
2022-09-10T13:41:59.896Z,95614.63
2022-09-10T13:44:55.856Z,95611.88
2022-09-10T13:47:29.802Z,95605.31
2022-09-10T13:50:01.932Z,95607.09
2022-09-10T13:52:34.617Z,95600.53
2022-09-10T13:55:04.220Z,95606.13
2022-09-10T13:57:35.449Z,95613.75
2022-09-10T14:00:08.093Z,95598.69
2022-09-10T14:02:44.732Z,95608.50
2022-09-10T14:05:27.187Z,95603.03
2022-09-10T14:07:57.035Z,95604.25
2022-09-10T14:10:24.998Z,95596.81
2022-09-10T14:12:54.189Z,95605.97
2022-09-10T14:15:25.687Z,95613.44
2022-09-10T14:17:59.196Z,95604.09
2022-09-10T14:20:29.559Z,95614.59
2022-09-10T14:23:00.721Z,95604.16
2022-09-10T14:25:31.385Z,95600.25
2022-09-10T14:28:25.807Z,95606.50
2022-09-10T14:31:18.836Z,95605.41
2022-09-10T14:33:47.720Z,95627.22
2022-09-10T14:36:17.806Z,95611.31
2022-09-10T14:38:54.301Z,95617.47
2022-09-10T14:41:24.699Z,95619.63
2022-09-10T14:44:16.790Z,95621.41
2022-09-10T14:46:50.072Z,95619.53
2022-09-10T14:49:20.551Z,95635.91
2022-09-10T14:51:48.033Z,95632.22
2022-09-10T14:54:15.499Z,95620.72
2022-09-10T14:56:45.000Z,95635.34
2022-09-10T14:59:16.731Z,95631.34
2022-09-10T15:01:46.443Z,95620.63
2022-09-10T15:04:15.799Z,95627.81
2022-09-10T15:06:45.017Z,95631.44
2022-09-10T15:09:13.630Z,95630.72
2022-09-10T15:11:52.038Z,95629.56
2022-09-10T15:14:19.999Z,95613.69
2022-09-10T15:16:47.936Z,95610.94
2022-09-10T15:19:15.318Z,95616.09
2022-09-10T15:21:44.119Z,95618.59
2022-09-10T15:24:14.903Z,95622.59
2022-09-10T15:26:42.377Z,95628.63
2022-09-10T15:29:10.040Z,95635.81
2022-09-10T15:31:38.258Z,95645.84
2022-09-10T15:34:07.980Z,95652.44
2022-09-10T15:36:36.967Z,95651.75
2022-09-10T15:39:06.839Z,95638.88
2022-09-10T15:41:35.029Z,95642.31
2022-09-10T15:44:03.895Z,95648.06
2022-09-10T15:46:31.327Z,95655.16
2022-09-10T15:48:59.345Z,95643.16
2022-09-10T15:51:27.066Z,95636.44
2022-09-10T15:53:55.143Z,95648.72
2022-09-10T15:56:25.916Z,95647.25
2022-09-10T15:58:56.551Z,95639.25
2022-09-10T16:01:25.395Z,95635.16
2022-09-10T16:03:55.230Z,95632.53
2022-09-10T16:06:25.119Z,95637.78
2022-09-10T16:08:56.505Z,95644.25
2022-09-10T16:11:26.183Z,95642.00
2022-09-10T16:13:53.818Z,95647.84
2022-09-10T16:16:23.709Z,95649.88
2022-09-10T16:18:51.674Z,95644.06
2022-09-10T16:21:22.226Z,95639.38
2022-09-10T16:23:52.196Z,95654.06
2022-09-10T16:26:21.885Z,95630.69
2022-09-10T16:28:51.399Z,95637.63
2022-09-10T16:31:20.939Z,95650.47
2022-09-10T16:33:52.806Z,95659.91
2022-09-10T16:36:22.200Z,95657.28
2022-09-10T16:38:53.723Z,95655.16
2022-09-10T16:41:22.160Z,95645.97
2022-09-10T16:43:51.503Z,95649.31
2022-09-10T16:46:19.332Z,95662.16
2022-09-10T16:48:47.029Z,95655.56
2022-09-10T16:51:16.524Z,95667.41
2022-09-10T16:53:45.899Z,95671.59
2022-09-10T16:56:15.745Z,95671.34
2022-09-10T16:58:48.123Z,95672.59
2022-09-10T17:01:17.334Z,95685.75
2022-09-10T17:03:46.184Z,95685.63
2022-09-10T17:06:15.540Z,95686.31
2022-09-10T17:08:45.073Z,95695.81
2022-09-10T17:11:12.912Z,95686.31
2022-09-10T17:13:40.326Z,95698.38
2022-09-10T17:16:23.212Z,95702.38
2022-09-10T17:18:56.110Z,95701.94
2022-09-10T17:21:23.558Z,95713.78
2022-09-10T17:23:50.963Z,95722.00
2022-09-10T17:26:18.744Z,95710.50
2022-09-10T17:28:53.211Z,95711.31
2022-09-10T17:31:22.164Z,95715.53
2022-09-10T17:33:49.912Z,95704.94
2022-09-10T17:36:17.585Z,95709.69
2022-09-10T17:38:45.854Z,95702.44
2022-09-10T17:41:14.442Z,95705.56
2022-09-10T17:43:43.777Z,95715.09
2022-09-10T17:46:14.744Z,95708.84
2022-09-10T17:48:45.626Z,95712.88
2022-09-10T17:51:14.512Z,95723.38
2022-09-10T17:53:43.296Z,95702.44
2022-09-10T17:56:12.211Z,95730.69
2022-09-10T17:58:40.020Z,95726.50
2022-09-10T18:01:10.078Z,95722.59
2022-09-10T18:03:37.896Z,95722.09
2022-09-10T18:06:08.703Z,95721.59
2022-09-10T18:08:36.811Z,95728.91
2022-09-10T18:11:05.692Z,95734.94
2022-09-10T18:13:34.011Z,95736.56
2022-09-10T18:16:06.307Z,95749.16
2022-09-10T18:18:34.834Z,95754.91
2022-09-10T18:21:13.735Z,95755.66
2022-09-10T18:23:43.538Z,95760.16
2022-09-10T18:26:13.016Z,95766.97
2022-09-10T18:28:40.454Z,95758.78
2022-09-10T18:31:08.014Z,95765.66
2022-09-10T18:33:38.237Z,95769.53
2022-09-10T18:36:13.638Z,95776.13
2022-09-10T18:38:42.059Z,95764.03
2022-09-10T18:41:21.784Z,95771.66
2022-09-10T18:43:50.793Z,95774.56
2022-09-10T18:46:19.887Z,95773.72
2022-09-10T18:48:48.357Z,95775.28
2022-09-10T18:51:20.343Z,95778.69
2022-09-10T18:53:49.539Z,95778.69
2022-09-10T18:56:19.256Z,95783.38
2022-09-10T18:58:49.905Z,95778.97
2022-09-10T19:01:18.853Z,95791.25
2022-09-10T19:03:48.291Z,95782.63
2022-09-10T19:06:19.055Z,95797.53
2022-09-10T19:08:52.497Z,95793.31
2022-09-10T19:11:21.217Z,95798.56
2022-09-10T19:13:49.894Z,95813.56
2022-09-10T19:16:18.334Z,95815.47
2022-09-10T19:18:50.615Z,95821.22
2022-09-10T19:21:20.096Z,95798.53
2022-09-10T19:23:49.102Z,95831.47
2022-09-10T19:26:17.671Z,95825.41
2022-09-10T19:28:45.636Z,95823.03
2022-09-10T19:31:15.065Z,95838.78
2022-09-10T19:33:42.803Z,95837.72
2022-09-10T19:36:12.373Z,95819.50
2022-09-10T19:38:42.206Z,95849.00
2022-09-10T19:41:12.077Z,95838.34
2022-09-10T19:43:40.372Z,95852.97
2022-09-10T19:46:11.062Z,95856.13
2022-09-10T19:48:38.749Z,95860.31
2022-09-10T19:51:07.774Z,95854.53
2022-09-10T19:53:35.340Z,95859.81
2022-09-10T19:56:08.997Z,95859.00
2022-09-10T19:58:37.427Z,95862.47
2022-09-10T20:01:09.328Z,95861.19
2022-09-10T20:03:37.592Z,95863.81
2022-09-10T20:06:05.544Z,95872.78
2022-09-10T20:08:34.662Z,95861.50
2022-09-10T20:11:05.838Z,95874.09
2022-09-10T20:13:34.992Z,95863.34
2022-09-10T20:16:03.188Z,95879.91
2022-09-10T20:18:31.943Z,95878.84
2022-09-10T20:21:11.586Z,95874.69
2022-09-10T20:23:39.382Z,95851.75
2022-09-10T20:26:11.976Z,95879.44
2022-09-10T20:28:41.129Z,95882.63
2022-09-10T20:31:10.675Z,95880.75
2022-09-10T20:33:39.090Z,95880.03
2022-09-10T20:36:11.439Z,95882.38
2022-09-10T20:38:38.981Z,95878.50
2022-09-10T20:41:07.428Z,95884.44
2022-09-10T20:43:35.396Z,95882.88
2022-09-10T20:46:05.048Z,95874.78
2022-09-10T20:48:33.082Z,95886.84
2022-09-10T20:51:01.541Z,95880.34
2022-09-10T20:53:28.985Z,95887.66
2022-09-10T20:56:03.723Z,95890.81
2022-09-10T20:58:32.343Z,95906.34
2022-09-10T21:01:07.858Z,95896.94
2022-09-10T21:03:35.285Z,95903.47
2022-09-10T21:06:03.168Z,95896.94
2022-09-10T21:08:31.467Z,95906.56
2022-09-10T21:11:04.818Z,95901.59
2022-09-10T21:13:34.106Z,95890.06
2022-09-10T21:16:09.166Z,95903.75
2022-09-10T21:18:36.716Z,95904.25
2022-09-10T21:21:08.094Z,95907.41
2022-09-10T21:23:36.549Z,95898.22
2022-09-10T21:26:05.024Z,95911.88
2022-09-10T21:28:32.461Z,95915.03
2022-09-10T21:31:03.022Z,95907.00
2022-09-10T21:33:31.852Z,95913.78
2022-09-10T21:36:03.074Z,95907.47
2022-09-10T21:38:30.984Z,95916.38
2022-09-10T21:40:59.285Z,95907.81
2022-09-10T21:43:27.445Z,95925.59
2022-09-10T21:45:55.362Z,95923.78
2022-09-10T21:48:23.218Z,95931.63
2022-09-10T21:51:00.259Z,95947.66
2022-09-10T21:53:28.219Z,95927.47
2022-09-10T21:55:55.987Z,95944.47
2022-09-10T21:58:24.138Z,95949.72
2022-09-10T22:00:51.631Z,95941.09
2022-09-10T22:03:19.907Z,95953.97
2022-09-10T22:05:47.535Z,95945.78
2022-09-10T22:08:16.330Z,95940.88
2022-09-10T22:10:43.848Z,95955.78
2022-09-10T22:13:11.687Z,95950.81
2022-09-10T22:15:40.302Z,95949.25
2022-09-10T22:18:08.274Z,95955.09
2022-09-10T22:20:35.930Z,95960.84
2022-09-10T22:23:04.086Z,95952.72
2022-09-10T22:25:33.251Z,95963.25
2022-09-10T22:28:00.648Z,95960.94
2022-09-10T22:30:28.881Z,95968.03
2022-09-10T22:32:57.168Z,95959.16
2022-09-10T22:35:25.548Z,95944.50
2022-09-10T22:37:55.892Z,95963.88
2022-09-10T22:40:23.942Z,95967.31
2022-09-10T22:42:53.724Z,95969.44
2022-09-10T22:45:21.126Z,95966.81
2022-09-10T22:47:48.929Z,95971.25
2022-09-10T22:50:16.515Z,95972.28
2022-09-10T22:52:45.679Z,95969.66
2022-09-10T22:55:14.170Z,95975.94
2022-09-10T22:57:41.826Z,95978.56
2022-09-10T23:00:13.283Z,95982.53
2022-09-10T23:02:40.785Z,95976.25
2022-09-10T23:05:08.800Z,95989.06
2022-09-10T23:07:36.332Z,95976.47
2022-09-10T23:10:04.085Z,95977.81
2022-09-10T23:12:31.533Z,95980.16
2022-09-10T23:14:59.000Z,95993.78
2022-09-10T23:17:27.790Z,95995.38
2022-09-10T23:19:55.444Z,95990.66
2022-09-10T23:22:22.957Z,95988.56
2022-09-10T23:24:50.378Z,95996.19
2022-09-10T23:27:17.790Z,95988.31
2022-09-10T23:29:45.221Z,95996.97
2022-09-10T23:32:12.656Z,95992.56
2022-09-10T23:34:41.522Z,96000.94
2022-09-10T23:37:09.908Z,96006.19
2022-09-10T23:39:37.722Z,96005.69
2022-09-10T23:42:05.916Z,96002.06
2022-09-10T23:44:33.920Z,95987.91
2022-09-10T23:47:01.493Z,96012.81
2022-09-10T23:49:29.034Z,96022.75
2022-09-10T23:51:57.803Z,96020.66
2022-09-10T23:54:25.385Z,96021.19
2022-09-10T23:56:52.840Z,96023.03
2022-09-10T23:59:20.294Z,96014.09
